createdAt,value
2023-05-27T00:00:16.743Z,4.18
2023-05-27T00:02:43.979Z,4.57
2023-05-27T00:05:11.763Z,4.63
2023-05-27T00:07:39.336Z,4.30
2023-05-27T00:10:07.226Z,3.45
2023-05-27T00:12:34.576Z,3.55
2023-05-27T00:15:01.770Z,3.30
2023-05-27T00:17:29.622Z,3.22
2023-05-27T00:19:56.850Z,3.28
2023-05-27T00:22:24.581Z,4.40
2023-05-27T00:24:51.963Z,3.90
2023-05-27T00:27:19.682Z,3.97
2023-05-27T00:29:46.923Z,3.65
2023-05-27T00:32:14.324Z,3.78
2023-05-27T00:34:41.603Z,3.63
2023-05-27T00:37:09.490Z,3.80
2023-05-27T00:39:37.108Z,4.23
2023-05-27T00:42:05.430Z,3.95
2023-05-27T00:44:32.633Z,4.00
2023-05-27T00:47:01.117Z,3.63
2023-05-27T00:49:28.634Z,3.05
2023-05-27T00:51:56.485Z,3.63
2023-05-27T00:54:24.440Z,4.97
2023-05-27T00:56:52.984Z,4.72
2023-05-27T00:59:20.643Z,4.13
2023-05-27T01:01:59.720Z,3.97
2023-05-27T01:07:09.840Z,4.07
2023-05-27T01:10:10.502Z,4.10
2023-05-27T01:13:02.330Z,3.17
2023-05-27T01:15:33.767Z,3.60
2023-05-27T01:18:04.425Z,3.63
2023-05-27T01:20:34.010Z,3.28
2023-05-27T01:23:02.939Z,4.18
2023-05-27T01:25:30.585Z,3.42
2023-05-27T01:27:58.028Z,3.90
2023-05-27T01:30:26.032Z,3.72
2023-05-27T01:33:10.138Z,3.80
2023-05-27T01:35:47.780Z,4.45
2023-05-27T01:38:21.544Z,3.90
2023-05-27T01:40:51.812Z,3.47
2023-05-27T01:43:20.708Z,3.67
2023-05-27T01:45:48.486Z,4.57
2023-05-27T01:48:15.980Z,3.92
2023-05-27T01:50:43.177Z,3.83
2023-05-27T01:53:10.397Z,3.97
2023-05-27T01:55:37.723Z,3.47
2023-05-27T01:58:05.080Z,4.38
2023-05-27T02:00:34.831Z,3.85
2023-05-27T02:03:02.222Z,4.25
2023-05-27T02:05:29.605Z,2.97
2023-05-27T02:07:57.457Z,3.13
2023-05-27T02:12:53.891Z,4.50
2023-05-27T02:15:24.502Z,4.05
2023-05-27T02:17:56.255Z,3.53
2023-05-27T02:20:24.462Z,3.83
2023-05-27T02:22:53.344Z,3.88
2023-05-27T02:25:20.822Z,3.65
2023-05-27T02:27:49.534Z,4.10
2023-05-27T02:30:17.340Z,3.65
2023-05-27T02:32:45.374Z,3.30
2023-05-27T02:35:16.197Z,4.20
2023-05-27T02:37:45.839Z,4.10
2023-05-27T02:40:13.369Z,4.65
2023-05-27T02:42:40.571Z,4.03
2023-05-27T02:45:09.550Z,4.03
2023-05-27T02:47:36.819Z,3.83
2023-05-27T02:50:04.671Z,4.50
2023-05-27T02:52:31.872Z,4.13
2023-05-27T02:54:59.047Z,3.78
2023-05-27T02:57:26.745Z,4.35
2023-05-27T02:59:53.965Z,4.70
2023-05-27T03:02:21.230Z,3.63
2023-05-27T03:04:50.296Z,4.03
2023-05-27T03:07:17.626Z,4.38
2023-05-27T03:09:44.807Z,4.13
2023-05-27T03:12:11.979Z,4.05
2023-05-27T03:14:41.542Z,3.38
2023-05-27T03:17:09.497Z,3.88
2023-05-27T03:19:36.649Z,3.10
2023-05-27T03:22:05.881Z,3.50
2023-05-27T03:24:33.305Z,4.32
2023-05-27T03:27:02.248Z,4.05
2023-05-27T03:29:31.820Z,4.60
2023-05-27T03:31:59.656Z,4.63
2023-05-27T03:34:27.568Z,5.28
2023-05-27T03:36:54.845Z,4.28
2023-05-27T03:39:28.558Z,4.68
2023-05-27T03:41:58.981Z,4.43
2023-05-27T03:44:26.230Z,4.03
2023-05-27T03:46:53.641Z,3.90
2023-05-27T03:49:20.815Z,4.20
2023-05-27T03:51:48.518Z,3.78
2023-05-27T03:54:16.264Z,3.83
2023-05-27T03:56:44.177Z,4.03
2023-05-27T03:59:14.296Z,3.70
2023-05-27T04:01:42.186Z,4.38
2023-05-27T04:04:09.956Z,4.55
2023-05-27T04:06:38.236Z,3.95
2023-05-27T04:09:05.812Z,4.72
2023-05-27T04:11:32.959Z,4.82
2023-05-27T04:14:00.171Z,5.03
2023-05-27T04:16:27.437Z,4.40
2023-05-27T04:18:56.099Z,4.47
2023-05-27T04:21:23.698Z,4.35
2023-05-27T04:23:51.170Z,4.80
2023-05-27T04:26:19.439Z,5.60
2023-05-27T04:28:51.284Z,5.03
2023-05-27T04:31:19.312Z,3.85
2023-05-27T04:33:54.373Z,4.88
2023-05-27T04:36:26.382Z,4.07
2023-05-27T04:39:05.187Z,4.35
2023-05-27T04:41:35.205Z,5.53
2023-05-27T04:44:27.877Z,5.05
2023-05-27T04:46:57.447Z,4.88
2023-05-27T04:49:25.832Z,5.17
2023-05-27T04:51:55.646Z,4.78
2023-05-27T04:54:24.418Z,4.88
2023-05-27T04:56:53.128Z,5.30
2023-05-27T04:59:30.681Z,4.73
2023-05-27T05:02:11.962Z,4.97
2023-05-27T05:04:56.462Z,5.07
2023-05-27T05:07:24.380Z,5.30
2023-05-27T05:09:52.982Z,4.53
2023-05-27T05:12:27.948Z,4.57
2023-05-27T05:14:56.457Z,4.80
2023-05-27T05:17:25.566Z,5.05
2023-05-27T05:19:54.316Z,4.38
2023-05-27T05:22:24.014Z,5.05
2023-05-27T05:24:52.153Z,3.92
2023-05-27T05:27:28.708Z,4.75
2023-05-27T05:29:55.981Z,6.38
2023-05-27T05:32:23.189Z,6.93
2023-05-27T05:34:51.178Z,5.07
2023-05-27T05:37:19.720Z,5.43
2023-05-27T05:39:48.832Z,5.00
2023-05-27T05:42:16.321Z,5.13
2023-05-27T05:44:43.506Z,4.55
2023-05-27T05:47:11.069Z,4.07
2023-05-27T05:49:38.388Z,4.15
2023-05-27T05:52:07.939Z,4.88
2023-05-27T05:54:36.187Z,4.63
2023-05-27T05:57:04.308Z,4.13
2023-05-27T05:59:31.528Z,5.15
2023-05-27T06:01:58.965Z,4.70
2023-05-27T06:04:29.398Z,3.83
2023-05-27T06:06:58.786Z,4.63
2023-05-27T06:09:35.495Z,4.35
2023-05-27T06:12:08.435Z,4.22
2023-05-27T06:14:42.052Z,5.10
2023-05-27T06:17:10.900Z,4.63
2023-05-27T06:19:38.145Z,4.88
2023-05-27T06:22:06.764Z,4.20
2023-05-27T06:24:52.570Z,4.05
2023-05-27T06:27:32.117Z,4.13
2023-05-27T06:29:59.359Z,4.10
2023-05-27T06:32:35.366Z,4.10
2023-05-27T06:35:02.741Z,4.30
2023-05-27T06:37:30.079Z,4.03
2023-05-27T06:39:57.622Z,3.70
2023-05-27T06:42:25.564Z,4.50
2023-05-27T06:45:24.931Z,3.75
2023-05-27T06:48:01.726Z,4.25
2023-05-27T06:50:28.963Z,4.63
2023-05-27T06:52:56.124Z,4.35
2023-05-27T06:58:35.875Z,4.30
2023-05-27T07:01:09.528Z,4.50
2023-05-27T07:03:42.143Z,4.80
2023-05-27T07:06:17.547Z,4.72
2023-05-27T07:08:49.409Z,4.28
2023-05-27T07:11:27.612Z,3.95
2023-05-27T07:14:00.157Z,4.97
2023-05-27T07:16:31.198Z,4.88
2023-05-27T07:18:58.463Z,4.55
2023-05-27T07:21:27.422Z,4.22
2023-05-27T07:23:54.987Z,3.70
2023-05-27T07:26:41.156Z,5.10
2023-05-27T07:29:08.462Z,4.53
2023-05-27T07:31:56.148Z,3.80
2023-05-27T07:34:29.235Z,3.95
2023-05-27T07:36:57.367Z,3.97
2023-05-27T07:39:24.778Z,4.18
2023-05-27T07:41:52.337Z,4.10
2023-05-27T07:44:20.366Z,4.72
2023-05-27T07:46:47.770Z,4.28
2023-05-27T07:49:15.815Z,4.03
2023-05-27T07:51:55.985Z,4.13
2023-05-27T07:54:23.848Z,3.92
2023-05-27T07:56:52.025Z,3.90
2023-05-27T07:59:19.507Z,4.65
2023-05-27T08:01:46.960Z,4.25
2023-05-27T08:04:24.289Z,4.65
2023-05-27T08:07:04.106Z,4.40
2023-05-27T08:09:51.286Z,4.38
2023-05-27T08:12:34.177Z,4.13
2023-05-27T08:15:31.601Z,4.45
2023-05-27T08:18:25.499Z,4.45
2023-05-27T08:21:06.382Z,4.97
2023-05-27T08:23:53.481Z,4.20
2023-05-27T08:26:49.356Z,4.63
2023-05-27T08:29:21.582Z,4.63
2023-05-27T08:32:00.354Z,5.53
2023-05-27T08:34:28.446Z,4.63
2023-05-27T08:36:56.315Z,4.63
2023-05-27T08:39:25.405Z,4.82
2023-05-27T08:42:06.390Z,4.05
2023-05-27T08:44:33.749Z,4.32
2023-05-27T08:47:06.096Z,3.55
2023-05-27T08:49:34.409Z,3.97
2023-05-27T08:52:03.428Z,3.75
2023-05-27T08:54:32.084Z,3.70
2023-05-27T08:57:08.702Z,4.65
2023-05-27T08:59:36.838Z,4.47
2023-05-27T09:02:13.285Z,4.65
2023-05-27T09:04:42.084Z,4.43
2023-05-27T09:07:09.974Z,4.10
2023-05-27T09:09:37.505Z,4.20
2023-05-27T09:12:06.742Z,4.70
2023-05-27T09:14:35.061Z,4.57
2023-05-27T09:17:10.140Z,4.57
2023-05-27T09:19:37.424Z,4.35
2023-05-27T09:22:05.861Z,4.70
2023-05-27T09:24:33.291Z,4.10
2023-05-27T09:27:03.538Z,5.10
2023-05-27T09:29:31.508Z,4.93
2023-05-27T09:31:58.716Z,4.40
2023-05-27T09:34:25.953Z,8.18
2023-05-27T09:36:54.074Z,7.28
2023-05-27T09:39:23.781Z,7.40
2023-05-27T09:41:56.537Z,5.90
2023-05-27T09:44:33.640Z,5.30
2023-05-27T09:47:03.281Z,5.45
2023-05-27T09:49:34.014Z,4.93
2023-05-27T09:52:02.136Z,5.60
2023-05-27T09:54:31.367Z,4.80
2023-05-27T09:57:00.546Z,4.93
2023-05-27T09:59:28.157Z,4.20
2023-05-27T10:01:57.289Z,4.53
2023-05-27T10:04:31.435Z,4.35
2023-05-27T10:07:00.735Z,4.82
2023-05-27T10:11:56.041Z,4.25
2023-05-27T10:14:23.716Z,4.87
2023-05-27T10:16:57.295Z,4.68
2023-05-27T10:19:25.091Z,5.20
2023-05-27T10:21:54.254Z,4.65
2023-05-27T10:24:33.673Z,4.72
2023-05-27T10:27:07.006Z,4.75
2023-05-27T10:29:39.766Z,4.28
2023-05-27T10:32:07.591Z,4.45
2023-05-27T10:34:37.416Z,4.35
2023-05-27T10:37:05.317Z,4.45
2023-05-27T10:39:32.536Z,4.57
2023-05-27T10:41:59.834Z,5.45
2023-05-27T10:44:29.813Z,4.75
2023-05-27T10:47:11.469Z,4.57
2023-05-27T10:49:41.643Z,4.32
2023-05-27T10:52:18.379Z,4.28
2023-05-27T10:54:48.929Z,4.72
2023-05-27T10:57:18.478Z,4.70
2023-05-27T10:59:51.511Z,4.55
2023-05-27T11:02:20.161Z,4.40
2023-05-27T11:04:50.115Z,4.38
2023-05-27T11:07:22.335Z,4.70
2023-05-27T11:09:53.036Z,5.30
2023-05-27T11:12:28.310Z,3.97
2023-05-27T11:14:57.311Z,5.10
2023-05-27T11:17:29.592Z,4.47
2023-05-27T11:19:57.488Z,4.22
2023-05-27T11:22:24.921Z,4.73
2023-05-27T11:25:04.008Z,4.38
2023-05-27T11:27:40.284Z,4.30
2023-05-27T11:30:15.313Z,4.40
2023-05-27T11:32:48.188Z,4.53
2023-05-27T11:35:20.107Z,5.30
2023-05-27T11:37:52.327Z,5.00
2023-05-27T11:40:20.465Z,4.78
2023-05-27T11:42:48.416Z,4.72
2023-05-27T11:45:20.740Z,4.72
2023-05-27T11:47:52.423Z,4.80
2023-05-27T11:50:22.798Z,5.78
2023-05-27T11:52:59.650Z,4.28
2023-05-27T11:55:27.649Z,4.38
2023-05-27T11:57:55.472Z,5.10
2023-05-27T12:00:22.874Z,4.63
2023-05-27T12:02:50.498Z,4.65
2023-05-27T12:05:33.074Z,4.75
2023-05-27T12:08:04.442Z,3.95
2023-05-27T12:10:32.199Z,4.65
2023-05-27T12:13:07.638Z,4.03
2023-05-27T12:15:35.674Z,3.83
2023-05-27T12:18:03.516Z,5.17
2023-05-27T12:20:31.500Z,4.20
2023-05-27T12:22:59.971Z,4.05
2023-05-27T12:27:55.540Z,4.68
2023-05-27T12:30:23.153Z,4.33
2023-05-27T12:32:51.050Z,4.63
2023-05-27T12:35:18.754Z,4.30
2023-05-27T12:37:48.939Z,5.20
2023-05-27T12:40:17.264Z,5.05
2023-05-27T12:45:18.699Z,4.60
2023-05-27T12:47:50.476Z,4.50
2023-05-27T12:50:22.759Z,4.43
2023-05-27T12:52:52.352Z,4.43
2023-05-27T12:55:22.760Z,5.10
2023-05-27T12:57:52.592Z,4.93
2023-05-27T13:00:21.792Z,5.35
2023-05-27T13:02:50.198Z,4.78
2023-05-27T13:05:20.043Z,4.18
2023-05-27T13:08:03.487Z,4.47
2023-05-27T13:10:31.630Z,5.07
2023-05-27T13:15:29.839Z,4.30
2023-05-27T13:17:59.938Z,4.43
2023-05-27T13:20:30.804Z,4.80
2023-05-27T13:23:02.298Z,3.97
2023-05-27T13:25:31.426Z,4.53
2023-05-27T13:27:59.643Z,4.75
2023-05-27T13:32:57.049Z,4.40
2023-05-27T13:35:24.841Z,4.00
2023-05-27T13:37:52.619Z,6.32
2023-05-27T13:40:20.302Z,4.55
2023-05-27T13:42:48.488Z,4.15
2023-05-27T13:45:16.365Z,3.65
2023-05-27T13:47:45.674Z,3.65
2023-05-27T13:50:13.572Z,3.80
2023-05-27T13:52:42.503Z,3.50
2023-05-27T13:55:10.492Z,3.60
2023-05-27T13:57:38.573Z,3.70
2023-05-27T14:00:07.439Z,3.92
2023-05-27T14:02:35.135Z,3.67
2023-05-27T14:05:04.551Z,3.45
2023-05-27T14:07:32.362Z,4.13
2023-05-27T14:09:59.979Z,3.30
2023-05-27T14:12:31.185Z,3.22
2023-05-27T14:14:58.922Z,3.38
2023-05-27T14:17:26.714Z,4.05
2023-05-27T14:19:54.444Z,3.17
2023-05-27T14:22:23.279Z,2.85
2023-05-27T14:24:51.008Z,3.67
2023-05-27T14:27:18.714Z,3.38
2023-05-27T14:29:46.461Z,2.72
2023-05-27T14:32:14.041Z,3.40
2023-05-27T14:34:41.688Z,3.10
2023-05-27T14:37:09.699Z,2.95
2023-05-27T14:39:37.503Z,3.15
2023-05-27T14:42:05.664Z,3.95
2023-05-27T14:44:36.554Z,3.22
2023-05-27T14:47:05.427Z,3.17
2023-05-27T14:49:33.237Z,3.25
2023-05-27T14:52:01.209Z,3.45
2023-05-27T14:54:29.490Z,3.45
2023-05-27T14:56:57.783Z,3.83
2023-05-27T14:59:25.512Z,3.83
2023-05-27T15:01:53.134Z,3.58
2023-05-27T15:04:20.989Z,3.10
2023-05-27T15:06:49.380Z,3.25
2023-05-27T15:09:18.191Z,3.00
2023-05-27T15:11:45.798Z,3.13
2023-05-27T15:14:13.439Z,3.03
2023-05-27T15:16:41.055Z,3.17
2023-05-27T15:19:08.737Z,3.65
2023-05-27T15:21:36.773Z,3.25
2023-05-27T15:24:04.630Z,3.08
2023-05-27T15:26:32.214Z,3.15
2023-05-27T15:28:59.843Z,3.22
2023-05-27T15:31:27.572Z,2.97
2023-05-27T15:33:56.402Z,3.08
2023-05-27T15:36:24.070Z,3.50
2023-05-27T15:38:52.124Z,3.13
2023-05-27T15:41:19.771Z,3.22
2023-05-27T15:43:47.392Z,3.20
2023-05-27T15:46:18.339Z,3.47
2023-05-27T15:48:46.329Z,3.15
2023-05-27T15:51:14.142Z,2.85
2023-05-27T15:53:41.709Z,2.83
2023-05-27T15:56:09.387Z,3.40
2023-05-27T15:58:37.218Z,3.25
2023-05-27T16:01:07.927Z,3.20
2023-05-27T16:03:35.588Z,3.47
2023-05-27T16:06:06.911Z,3.05
2023-05-27T16:08:34.775Z,3.15
2023-05-27T16:11:02.431Z,3.28
2023-05-27T16:13:30.117Z,3.40
2023-05-27T16:15:57.819Z,2.80
2023-05-27T16:18:25.743Z,3.53
2023-05-27T16:20:53.774Z,3.45
2023-05-27T16:23:22.087Z,3.55
2023-05-27T16:25:53.823Z,3.67
2023-05-27T16:28:24.522Z,3.55
2023-05-27T16:30:52.525Z,3.90
2023-05-27T16:33:20.601Z,2.88
2023-05-27T16:35:48.312Z,3.20
2023-05-27T16:38:16.300Z,3.00
2023-05-27T16:40:43.933Z,2.60
2023-05-27T16:43:11.526Z,3.72
2023-05-27T16:45:40.110Z,3.38
2023-05-27T16:48:08.417Z,3.65
2023-05-27T16:50:36.799Z,3.03
2023-05-27T16:53:05.459Z,3.40
2023-05-27T16:55:33.154Z,3.70
2023-05-27T16:58:00.960Z,3.17
2023-05-27T17:00:30.094Z,3.20
2023-05-27T17:02:57.812Z,3.50
2023-05-27T17:05:26.281Z,3.25
2023-05-27T17:07:54.034Z,3.63
2023-05-27T17:10:21.793Z,3.08
2023-05-27T17:12:49.424Z,3.50
2023-05-27T17:15:17.583Z,3.70
2023-05-27T17:17:45.387Z,4.00
2023-05-27T17:20:19.643Z,3.88
2023-05-27T17:22:47.941Z,3.53
2023-05-27T17:25:18.976Z,3.42
2023-05-27T17:27:48.706Z,3.60
2023-05-27T17:30:16.958Z,3.17
2023-05-27T17:32:44.732Z,3.00
2023-05-27T17:35:12.427Z,3.80
2023-05-27T17:37:41.750Z,2.90
2023-05-27T17:40:12.677Z,3.15
2023-05-27T17:42:40.764Z,3.03
2023-05-27T17:45:08.967Z,3.50
2023-05-27T17:47:36.913Z,3.15
2023-05-27T17:50:04.992Z,3.78
2023-05-27T17:52:32.842Z,3.50
2023-05-27T17:55:00.863Z,3.13
2023-05-27T17:57:32.081Z,3.35
2023-05-27T17:59:59.674Z,2.95
2023-05-27T18:02:27.485Z,3.08
2023-05-27T18:04:55.321Z,3.92
2023-05-27T18:07:23.086Z,3.28
2023-05-27T18:09:50.775Z,3.72
2023-05-27T18:12:18.430Z,3.13
2023-05-27T18:14:46.221Z,3.72
2023-05-27T18:17:16.703Z,3.88
2023-05-27T18:19:44.465Z,3.80
2023-05-27T18:22:11.720Z,3.80
2023-05-27T18:24:38.927Z,4.00
2023-05-27T18:27:06.307Z,3.72
2023-05-27T18:29:33.607Z,3.53
2023-05-27T18:32:00.913Z,3.85
2023-05-27T18:34:28.302Z,3.83
2023-05-27T18:36:56.151Z,3.67
2023-05-27T18:39:23.654Z,4.32
2023-05-27T18:41:50.888Z,4.53
2023-05-27T18:44:18.749Z,4.03
2023-05-27T18:46:46.271Z,4.00
2023-05-27T18:49:13.501Z,5.60
2023-05-27T18:51:41.390Z,3.70
2023-05-27T18:54:10.573Z,5.25
2023-05-27T18:59:06.205Z,4.65
2023-05-27T19:01:33.637Z,3.78
2023-05-27T19:04:02.269Z,3.63
2023-05-27T19:06:31.324Z,4.07
2023-05-27T19:09:00.286Z,3.72
2023-05-27T19:11:28.835Z,3.38
2023-05-27T19:13:55.997Z,4.35
2023-05-27T19:16:23.274Z,3.22
2023-05-27T19:18:50.591Z,3.80
2023-05-27T19:21:17.790Z,5.47
2023-05-27T19:23:46.347Z,5.50
2023-05-27T19:26:14.194Z,4.80
2023-05-27T19:28:42.090Z,3.97
2023-05-27T19:31:10.034Z,4.80
2023-05-27T19:33:37.246Z,5.13
2023-05-27T19:36:05.153Z,3.80
2023-05-27T19:38:32.520Z,5.00
2023-05-27T19:41:00.668Z,4.95
2023-05-27T19:43:28.602Z,3.45
2023-05-27T19:45:56.229Z,4.20
2023-05-27T19:48:24.466Z,4.22
2023-05-27T19:50:51.961Z,3.67
2023-05-27T19:53:19.989Z,4.25
2023-05-27T19:55:47.867Z,4.18
2023-05-27T19:58:16.323Z,3.93
2023-05-27T20:00:43.992Z,4.03
2023-05-27T20:03:11.604Z,3.63
2023-05-27T20:05:39.444Z,4.45
2023-05-27T20:08:06.788Z,4.90
2023-05-27T20:10:34.199Z,5.03
2023-05-27T20:13:01.396Z,5.15
2023-05-27T20:15:28.613Z,4.75
2023-05-27T20:17:55.976Z,5.32
2023-05-27T20:20:28.029Z,6.28
2023-05-27T20:22:55.731Z,5.00
2023-05-27T20:25:24.244Z,4.47
2023-05-27T20:27:53.108Z,4.72
2023-05-27T20:30:20.961Z,5.10
2023-05-27T20:32:48.798Z,5.03
2023-05-27T20:35:16.565Z,5.03
2023-05-27T20:37:44.231Z,6.15
2023-05-27T20:40:12.322Z,5.22
2023-05-27T20:42:40.373Z,6.10
2023-05-27T20:45:08.296Z,5.60
2023-05-27T20:47:36.978Z,6.10
2023-05-27T20:50:06.533Z,5.35
2023-05-27T20:52:34.277Z,4.80
2023-05-27T20:55:02.324Z,4.90
2023-05-27T20:57:30.789Z,5.15
2023-05-27T20:59:58.443Z,4.60
2023-05-27T21:02:26.448Z,5.65
2023-05-27T21:04:54.308Z,5.10
2023-05-27T21:07:22.636Z,4.72
2023-05-27T21:09:50.357Z,4.57
2023-05-27T21:12:18.046Z,5.53
2023-05-27T21:14:45.784Z,5.43
2023-05-27T21:17:13.694Z,4.88
2023-05-27T21:19:42.704Z,5.03
2023-05-27T21:22:10.918Z,5.15
2023-05-27T21:24:38.892Z,4.70
2023-05-27T21:27:06.942Z,5.03
2023-05-27T21:29:34.240Z,4.30
2023-05-27T21:32:01.839Z,4.80
2023-05-27T21:34:29.782Z,4.75
2023-05-27T21:37:01.374Z,4.90
2023-05-27T21:39:31.436Z,4.82
2023-05-27T21:41:58.717Z,5.57
2023-05-27T21:44:27.068Z,6.75
2023-05-27T21:46:54.294Z,5.03
2023-05-27T21:49:22.282Z,4.90
2023-05-27T21:51:50.335Z,5.38
2023-05-27T21:54:18.122Z,4.65
2023-05-27T21:56:45.998Z,4.82
2023-05-27T21:59:13.290Z,5.43
2023-05-27T22:01:40.704Z,5.45
2023-05-27T22:04:08.811Z,5.80
2023-05-27T22:06:44.645Z,8.88
2023-05-27T22:09:14.989Z,8.27
2023-05-27T22:11:42.236Z,6.63
2023-05-27T22:14:09.636Z,5.85
2023-05-27T22:16:37.082Z,5.55
2023-05-27T22:19:04.558Z,6.15
2023-05-27T22:21:32.275Z,6.93
2023-05-27T22:24:02.824Z,6.20
2023-05-27T22:26:30.057Z,5.50
2023-05-27T22:28:57.284Z,5.28
2023-05-27T22:31:28.016Z,5.63
2023-05-27T22:33:55.598Z,5.05
2023-05-27T22:36:22.739Z,5.53
2023-05-27T22:38:49.945Z,5.57
2023-05-27T22:41:17.132Z,5.82
2023-05-27T22:43:44.304Z,5.60
2023-05-27T22:46:14.772Z,6.07
2023-05-27T22:48:46.609Z,5.88
2023-05-27T22:51:20.648Z,5.70
2023-05-27T22:53:47.896Z,5.25
2023-05-27T22:56:20.997Z,5.60
2023-05-27T22:58:48.213Z,6.30
2023-05-27T23:01:15.561Z,5.93
2023-05-27T23:03:42.888Z,6.25
2023-05-27T23:06:10.342Z,5.78
2023-05-27T23:08:37.967Z,5.72
2023-05-27T23:13:58.111Z,5.45
2023-05-27T23:16:31.546Z,5.80
2023-05-27T23:18:59.087Z,5.30
2023-05-27T23:21:26.772Z,4.97
2023-05-27T23:23:54.178Z,7.00
2023-05-27T23:26:23.193Z,6.07
2023-05-27T23:28:50.630Z,5.50
2023-05-27T23:31:21.033Z,5.78
2023-05-27T23:33:48.654Z,5.68
2023-05-27T23:36:16.011Z,5.85
2023-05-27T23:38:43.328Z,6.15
2023-05-27T23:41:10.699Z,5.95
2023-05-27T23:43:37.948Z,4.97
2023-05-27T23:46:05.285Z,4.93
2023-05-27T23:48:34.478Z,4.70
2023-05-27T23:53:35.538Z,4.55
2023-05-27T23:56:03.048Z,4.97
2023-05-27T23:58:30.560Z,5.25
